createdAt,value
2019-03-15T00:01:50.993Z,3.50
2019-03-15T00:04:21.585Z,4.60
2019-03-15T00:06:52.069Z,5.07
2019-03-15T00:09:23.139Z,5.70
2019-03-15T00:11:53.618Z,6.47
2019-03-15T00:14:24.108Z,9.57
2019-03-15T00:16:54.729Z,7.03
2019-03-15T00:19:25.259Z,7.13
2019-03-15T00:21:55.795Z,7.23
2019-03-15T00:24:26.301Z,7.63
2019-03-15T00:26:56.760Z,7.03
2019-03-15T00:29:27.196Z,7.37
2019-03-15T00:31:57.672Z,7.03
2019-03-15T00:34:28.127Z,5.50
2019-03-15T00:36:58.557Z,5.70
2019-03-15T00:39:29.079Z,4.67
2019-03-15T00:41:59.646Z,6.00
2019-03-15T00:44:30.192Z,4.80
2019-03-15T00:47:00.754Z,4.67
2019-03-15T00:49:31.281Z,5.50
2019-03-15T00:52:01.857Z,4.83
2019-03-15T00:54:32.305Z,4.60
2019-03-15T00:57:02.802Z,6.83
2019-03-15T00:59:33.405Z,6.23
2019-03-15T01:02:03.900Z,9.67
2019-03-15T01:04:34.330Z,5.97
2019-03-15T01:07:04.817Z,4.63
2019-03-15T01:09:35.277Z,4.80
2019-03-15T01:12:05.841Z,4.43
2019-03-15T01:14:36.291Z,5.03
2019-03-15T01:17:06.766Z,4.93
2019-03-15T01:19:38.487Z,6.43
2019-03-15T01:22:09.149Z,4.80
2019-03-15T01:24:39.571Z,4.40
2019-03-15T01:27:10.079Z,4.13
2019-03-15T01:29:41.592Z,5.97
2019-03-15T01:32:12.140Z,4.10
2019-03-15T01:34:42.621Z,6.93
2019-03-15T01:37:13.111Z,6.77
2019-03-15T01:39:43.594Z,3.37
2019-03-15T01:42:14.361Z,3.30
2019-03-15T01:44:44.925Z,6.07
2019-03-15T01:47:16.960Z,3.87
2019-03-15T01:49:47.436Z,5.23
2019-03-15T01:52:17.948Z,4.23
2019-03-15T01:54:48.485Z,4.43
2019-03-15T01:57:18.982Z,4.33
2019-03-15T01:59:49.575Z,3.33
2019-03-15T02:02:20.063Z,3.43
2019-03-15T02:04:50.525Z,3.20
2019-03-15T02:07:21.022Z,2.90
2019-03-15T02:09:51.495Z,3.20
2019-03-15T02:12:22.042Z,3.20
2019-03-15T02:14:53.472Z,3.60
2019-03-15T02:17:25.223Z,3.27
2019-03-15T02:19:55.734Z,3.30
2019-03-15T02:22:26.222Z,2.83
2019-03-15T02:24:56.678Z,3.20
2019-03-15T02:27:27.107Z,2.83
2019-03-15T02:29:57.638Z,3.10
2019-03-15T02:32:28.146Z,3.03
2019-03-15T02:34:58.605Z,3.03
2019-03-15T02:37:29.083Z,3.50
2019-03-15T02:39:59.585Z,3.13
2019-03-15T02:42:30.097Z,3.10
2019-03-15T02:45:00.614Z,4.20
2019-03-15T02:47:32.150Z,3.30
2019-03-15T02:50:02.637Z,3.37
2019-03-15T02:52:33.204Z,3.23
2019-03-15T02:55:04.330Z,5.10
2019-03-15T02:57:35.579Z,4.47
2019-03-15T03:00:07.208Z,4.43
2019-03-15T03:02:37.746Z,4.20
2019-03-15T03:05:09.630Z,5.10
2019-03-15T03:07:41.109Z,4.30
2019-03-15T03:10:11.707Z,3.90
2019-03-15T03:12:42.168Z,4.57
2019-03-15T03:15:12.674Z,4.70
2019-03-15T03:17:43.166Z,4.57
2019-03-15T03:20:14.859Z,4.73
2019-03-15T03:22:45.385Z,4.50
2019-03-15T03:25:17.251Z,4.63
2019-03-15T03:27:48.109Z,5.17
2019-03-15T03:30:18.554Z,4.27
2019-03-15T03:32:49.541Z,5.30
2019-03-15T03:35:19.981Z,6.07
2019-03-15T03:37:50.496Z,4.50
2019-03-15T03:40:21.339Z,4.30
2019-03-15T03:42:51.906Z,5.27
2019-03-15T03:45:23.526Z,5.33
2019-03-15T03:47:54.223Z,7.13
2019-03-15T03:50:25.015Z,5.20
2019-03-15T03:52:55.547Z,5.90
2019-03-15T03:55:26.147Z,12.67
2019-03-15T03:57:56.940Z,4.97
2019-03-15T04:00:27.536Z,8.00
2019-03-15T04:02:57.930Z,8.70
2019-03-15T04:05:29.501Z,7.97
2019-03-15T04:07:59.945Z,6.40
2019-03-15T04:10:30.403Z,9.20
2019-03-15T04:13:00.975Z,10.20
2019-03-15T04:15:31.425Z,8.83
2019-03-15T04:18:01.956Z,7.83
2019-03-15T04:20:32.408Z,8.83
2019-03-15T04:23:02.877Z,25.83
2019-03-15T04:25:33.316Z,22.53
2019-03-15T04:28:03.807Z,16.17
2019-03-15T04:30:34.339Z,22.20
2019-03-15T04:33:04.851Z,16.87
2019-03-15T04:35:35.285Z,14.43
2019-03-15T04:38:05.763Z,25.87
2019-03-15T04:40:36.268Z,16.37
2019-03-15T04:43:06.687Z,31.83
2019-03-15T04:45:37.272Z,36.53
2019-03-15T04:48:07.745Z,45.33
2019-03-15T04:50:38.286Z,47.07
2019-03-15T04:53:08.709Z,31.80
2019-03-15T04:55:39.127Z,43.73
2019-03-15T04:58:09.598Z,61.23
2019-03-15T05:00:40.111Z,54.37
2019-03-15T05:03:10.598Z,25.50
2019-03-15T05:05:41.034Z,14.80
2019-03-15T05:08:11.557Z,7.57
2019-03-15T05:10:45.608Z,18.23
2019-03-15T05:13:15.726Z,5.97
2019-03-15T05:15:47.072Z,7.87
2019-03-15T05:18:17.589Z,7.23
2019-03-15T05:20:48.139Z,10.47
2019-03-15T05:23:18.607Z,5.93
2019-03-15T05:25:49.146Z,8.53
2019-03-15T05:28:20.626Z,11.33
2019-03-15T05:30:51.412Z,8.73
2019-03-15T05:33:22.006Z,14.80
2019-03-15T05:35:54.036Z,9.80
2019-03-15T05:38:24.555Z,7.40
2019-03-15T05:40:55.206Z,12.57
2019-03-15T05:43:26.763Z,9.20
2019-03-15T05:45:57.363Z,8.77
2019-03-15T05:48:29.378Z,6.47
2019-03-15T05:50:59.954Z,11.23
2019-03-15T05:53:30.873Z,8.63
2019-03-15T05:56:01.399Z,10.53
2019-03-15T05:58:32.094Z,20.97
2019-03-15T06:01:02.591Z,9.80
2019-03-15T06:03:33.077Z,7.67
2019-03-15T06:06:03.594Z,10.03
2019-03-15T06:08:34.426Z,5.27
2019-03-15T06:11:04.927Z,8.37
2019-03-15T06:13:35.609Z,9.97
2019-03-15T06:16:07.571Z,5.10
2019-03-15T06:18:38.137Z,13.63
2019-03-15T06:21:09.655Z,7.97
2019-03-15T06:23:40.173Z,14.00
2019-03-15T06:26:11.269Z,16.50
2019-03-15T06:28:41.813Z,7.50
2019-03-15T06:31:12.387Z,8.73
2019-03-15T06:33:42.920Z,13.03
2019-03-15T06:36:13.533Z,8.53
2019-03-15T06:38:43.986Z,7.97
2019-03-15T06:41:14.661Z,5.23
2019-03-15T06:43:45.223Z,10.03
2019-03-15T06:46:15.876Z,7.03
2019-03-15T06:48:47.718Z,8.73
2019-03-15T06:51:19.086Z,7.40
2019-03-15T06:53:51.997Z,5.23
2019-03-15T06:56:22.430Z,10.63
2019-03-15T06:58:54.989Z,7.63
2019-03-15T07:01:25.523Z,8.87
2019-03-15T07:03:56.097Z,6.80
2019-03-15T07:06:26.679Z,5.97
2019-03-15T07:08:58.995Z,8.73
2019-03-15T07:11:33.825Z,6.50
2019-03-15T07:14:04.845Z,12.43
2019-03-15T07:16:38.020Z,14.00
2019-03-15T07:19:07.577Z,5.17
2019-03-15T07:21:38.143Z,5.33
2019-03-15T07:24:08.715Z,11.17
2019-03-15T07:26:39.705Z,7.07
2019-03-15T07:29:10.286Z,8.90
2019-03-15T07:31:51.633Z,8.00
2019-03-15T07:34:23.029Z,10.90
2019-03-15T07:36:56.409Z,6.27
2019-03-15T07:39:27.258Z,7.37
2019-03-15T07:42:00.301Z,3.60
2019-03-15T07:44:31.508Z,6.67
2019-03-15T07:47:04.077Z,5.37
2019-03-15T07:49:34.325Z,8.67
2019-03-15T07:52:05.058Z,4.87
2019-03-15T07:54:38.544Z,6.20
2019-03-15T07:57:10.342Z,5.43
2019-03-15T07:59:41.447Z,5.73
2019-03-15T08:02:12.021Z,6.67
2019-03-15T08:04:43.108Z,8.50
2019-03-15T08:07:13.636Z,4.30
2019-03-15T08:09:50.911Z,6.43
2019-03-15T08:12:22.222Z,9.57
2019-03-15T08:14:53.920Z,5.37
2019-03-15T08:17:27.244Z,7.73
2019-03-15T08:19:58.006Z,8.17
2019-03-15T08:22:31.585Z,10.47
2019-03-15T08:25:02.243Z,8.33
2019-03-15T08:27:33.998Z,9.20
2019-03-15T08:30:05.077Z,7.43
2019-03-15T08:32:35.681Z,10.13
2019-03-15T08:35:07.299Z,8.53
2019-03-15T08:37:38.047Z,10.77
2019-03-15T08:40:09.338Z,6.13
2019-03-15T08:42:40.096Z,8.20
2019-03-15T08:45:12.838Z,8.27
2019-03-15T08:47:44.578Z,6.97
2019-03-15T08:50:15.731Z,5.57
2019-03-15T08:52:46.624Z,10.73
2019-03-15T08:55:17.311Z,8.57
2019-03-15T08:57:47.982Z,5.60
2019-03-15T09:00:18.734Z,5.67
2019-03-15T09:02:49.407Z,4.03
2019-03-15T09:05:20.129Z,8.67
2019-03-15T09:07:51.114Z,6.37
2019-03-15T09:10:23.642Z,7.50
2019-03-15T09:12:53.868Z,8.17
2019-03-15T09:15:24.358Z,9.10
2019-03-15T09:17:54.910Z,7.50
2019-03-15T09:20:30.326Z,7.77
2019-03-15T09:22:58.866Z,7.40
2019-03-15T09:25:29.494Z,6.10
2019-03-15T09:28:00.059Z,4.93
2019-03-15T09:30:30.706Z,7.43
2019-03-15T09:33:03.137Z,9.40
2019-03-15T09:35:33.574Z,6.47
2019-03-15T09:38:04.090Z,7.97
2019-03-15T09:40:34.771Z,7.63
2019-03-15T09:43:05.411Z,5.23
2019-03-15T09:45:36.052Z,6.53
2019-03-15T09:48:06.674Z,4.70
2019-03-15T09:50:50.494Z,5.67
2019-03-15T09:53:09.684Z,6.97
2019-03-15T09:55:40.506Z,6.50
2019-03-15T09:58:10.989Z,6.03
2019-03-15T10:00:41.593Z,8.07
2019-03-15T10:03:22.209Z,8.43
2019-03-15T10:05:44.494Z,4.87
2019-03-15T10:08:15.031Z,6.23
2019-03-15T10:10:48.689Z,7.80
2019-03-15T10:13:17.873Z,6.33
2019-03-15T10:15:48.644Z,9.90
2019-03-15T10:18:19.554Z,9.37
2019-03-15T10:20:50.306Z,8.20
2019-03-15T10:23:20.892Z,7.67
2019-03-15T10:25:51.511Z,8.40
2019-03-15T10:28:22.553Z,10.10
2019-03-15T10:30:53.230Z,10.10
2019-03-15T10:33:24.022Z,8.20
2019-03-15T10:35:54.892Z,6.73
2019-03-15T10:38:25.682Z,8.77
2019-03-15T10:40:56.287Z,9.87
2019-03-15T10:43:27.332Z,7.93
2019-03-15T10:45:58.272Z,8.73
2019-03-15T10:48:28.778Z,7.57
2019-03-15T10:50:59.337Z,7.07
2019-03-15T10:53:29.857Z,10.43
2019-03-15T10:56:00.791Z,10.93
2019-03-15T10:58:32.404Z,6.67
2019-03-15T11:01:02.981Z,11.03
2019-03-15T11:03:34.556Z,5.87
2019-03-15T11:06:05.863Z,8.47
2019-03-15T11:08:36.536Z,6.50
2019-03-15T11:11:07.172Z,8.97
2019-03-15T11:13:37.752Z,10.40
2019-03-15T11:16:08.329Z,9.80
2019-03-15T11:18:38.984Z,6.47
2019-03-15T11:21:09.602Z,7.17
2019-03-15T11:23:40.224Z,7.93
2019-03-15T11:26:13.802Z,6.33
2019-03-15T11:28:43.059Z,6.93
2019-03-15T11:31:13.521Z,8.13
2019-03-15T11:33:47.072Z,8.60
2019-03-15T11:36:16.468Z,7.47
2019-03-15T11:38:47.109Z,5.47
2019-03-15T11:41:17.569Z,8.13
2019-03-15T11:43:48.262Z,7.03
2019-03-15T11:46:18.992Z,7.23
2019-03-15T11:48:49.642Z,6.70
2019-03-15T11:51:20.377Z,6.20
2019-03-15T11:53:50.890Z,6.63
2019-03-15T11:56:26.950Z,5.60
2019-03-15T11:58:55.108Z,5.10
2019-03-15T12:01:25.516Z,4.63
2019-03-15T12:03:56.093Z,9.10
2019-03-15T12:06:26.703Z,6.47
2019-03-15T12:08:57.266Z,9.93
2019-03-15T12:11:28.093Z,4.00
2019-03-15T12:13:58.546Z,10.03
2019-03-15T12:16:29.029Z,8.57
2019-03-15T12:18:59.606Z,8.83
2019-03-15T12:21:30.074Z,6.93
2019-03-15T12:24:00.750Z,7.60
2019-03-15T12:26:40.347Z,6.77
2019-03-15T12:29:03.548Z,7.43
2019-03-15T12:31:35.385Z,6.83
2019-03-15T12:34:06.051Z,8.70
2019-03-15T12:36:36.553Z,7.10
2019-03-15T12:39:08.212Z,6.60
2019-03-15T12:41:38.809Z,11.43
2019-03-15T12:44:10.632Z,7.47
2019-03-15T12:46:42.434Z,8.77
2019-03-15T12:49:13.122Z,5.93
2019-03-15T12:51:43.954Z,6.87
2019-03-15T12:54:14.496Z,7.33
2019-03-15T12:56:53.562Z,9.00
2019-03-15T12:59:20.587Z,8.07
2019-03-15T13:01:51.077Z,8.47
2019-03-15T13:04:21.651Z,9.43
2019-03-15T13:06:52.106Z,9.83
2019-03-15T13:09:22.645Z,4.80
2019-03-15T13:11:53.284Z,6.77
2019-03-15T13:14:23.838Z,9.83
2019-03-15T13:16:54.306Z,9.20
2019-03-15T13:19:25.068Z,5.47
2019-03-15T13:21:55.783Z,7.03
2019-03-15T13:24:26.288Z,8.40
2019-03-15T13:27:06.954Z,7.13
2019-03-15T13:29:28.995Z,5.93
2019-03-15T13:31:59.703Z,4.73
2019-03-15T13:34:30.334Z,8.80
2019-03-15T13:37:00.970Z,6.60
2019-03-15T13:39:31.634Z,9.00
2019-03-15T13:42:02.162Z,6.43
2019-03-15T13:44:32.778Z,10.10
2019-03-15T13:47:03.372Z,7.43
2019-03-15T13:49:34.070Z,7.43
2019-03-15T13:52:04.664Z,10.00
2019-03-15T13:54:35.359Z,5.80
2019-03-15T13:57:05.952Z,8.50
2019-03-15T13:59:36.498Z,6.93
2019-03-15T14:02:07.747Z,7.17
2019-03-15T14:04:39.594Z,7.37
2019-03-15T14:07:10.222Z,5.27
2019-03-15T14:09:40.869Z,6.70
2019-03-15T14:12:12.520Z,6.40
2019-03-15T14:14:43.079Z,8.67
2019-03-15T14:17:13.726Z,6.13
2019-03-15T14:19:44.178Z,5.80
2019-03-15T14:22:14.735Z,9.47
2019-03-15T14:24:45.202Z,5.10
2019-03-15T14:27:15.696Z,10.50
2019-03-15T14:29:46.492Z,9.13
2019-03-15T14:32:18.432Z,6.47
2019-03-15T14:34:49.039Z,5.03
2019-03-15T14:37:19.745Z,6.87
2019-03-15T14:39:50.429Z,3.87
2019-03-15T14:42:21.102Z,7.43
2019-03-15T14:44:51.883Z,8.63
2019-03-15T14:47:22.342Z,8.33
2019-03-15T14:49:52.960Z,5.03
2019-03-15T14:52:23.623Z,7.20
2019-03-15T14:54:54.136Z,8.63
2019-03-15T14:57:24.976Z,7.17
2019-03-15T14:59:55.642Z,8.27
2019-03-15T15:02:26.196Z,8.27
2019-03-15T15:04:56.743Z,8.27
2019-03-15T15:07:27.276Z,9.57
2019-03-15T15:09:57.976Z,11.90
2019-03-15T15:12:28.607Z,11.73
2019-03-15T15:14:59.241Z,12.97
2019-03-15T15:17:29.894Z,15.33
2019-03-15T15:20:00.619Z,9.03
2019-03-15T15:22:32.306Z,13.73
2019-03-15T15:25:02.950Z,9.97
2019-03-15T15:27:33.509Z,11.03
2019-03-15T15:30:04.225Z,9.80
2019-03-15T15:32:34.845Z,8.80
2019-03-15T15:35:06.126Z,8.47
2019-03-15T15:37:36.838Z,5.30
2019-03-15T15:40:09.045Z,9.23
2019-03-15T15:42:39.539Z,12.87
2019-03-15T15:45:10.291Z,11.80
2019-03-15T15:47:40.903Z,13.90
2019-03-15T15:50:11.665Z,11.37
2019-03-15T15:52:43.820Z,11.00
2019-03-15T15:55:14.708Z,11.83
2019-03-15T15:57:45.535Z,8.23
2019-03-15T16:00:16.328Z,10.57
2019-03-15T16:02:48.034Z,12.33
2019-03-15T16:05:18.644Z,8.70
2019-03-15T16:07:49.279Z,10.43
2019-03-15T16:10:19.872Z,8.30
2019-03-15T16:12:50.573Z,11.33
2019-03-15T16:15:21.334Z,9.80
2019-03-15T16:17:51.986Z,9.73
2019-03-15T16:20:22.655Z,10.20
2019-03-15T16:22:54.812Z,11.83
2019-03-15T16:25:25.413Z,10.37
2019-03-15T16:27:55.905Z,16.00
2019-03-15T16:30:28.646Z,15.07
2019-03-15T16:32:59.226Z,8.90
2019-03-15T16:35:29.828Z,9.60
2019-03-15T16:38:00.571Z,15.73
2019-03-15T16:40:31.249Z,9.90
2019-03-15T16:43:01.919Z,11.90
2019-03-15T16:45:32.733Z,12.03
2019-03-15T16:48:03.695Z,9.13
2019-03-15T16:50:34.367Z,11.87
2019-03-15T16:53:04.847Z,13.10
2019-03-15T16:55:35.605Z,15.57
2019-03-15T16:58:06.062Z,23.63
2019-03-15T17:00:36.728Z,18.43
2019-03-15T17:03:07.379Z,16.10
2019-03-15T17:05:38.063Z,18.13
2019-03-15T17:08:08.498Z,20.57
2019-03-15T17:10:39.190Z,17.63
2019-03-15T17:13:09.792Z,18.63
2019-03-15T17:15:40.375Z,14.97
2019-03-15T17:18:10.915Z,19.57
2019-03-15T17:20:41.448Z,16.87
2019-03-15T17:23:11.963Z,12.40
2019-03-15T17:25:42.390Z,8.53
2019-03-15T17:28:12.909Z,19.63
2019-03-15T17:30:43.591Z,19.97
2019-03-15T17:33:14.162Z,19.50
2019-03-15T17:35:44.603Z,23.07
2019-03-15T17:38:15.428Z,15.87
2019-03-15T17:40:45.992Z,26.70
2019-03-15T17:43:16.617Z,16.73
2019-03-15T17:45:47.241Z,23.03
2019-03-15T17:48:17.799Z,19.87
2019-03-15T17:50:48.265Z,17.03
2019-03-15T17:53:19.008Z,19.03
2019-03-15T17:55:49.588Z,24.03
2019-03-15T17:58:20.324Z,20.37
2019-03-15T18:00:50.778Z,27.97
2019-03-15T18:03:23.871Z,19.63
2019-03-15T18:05:53.589Z,19.57
2019-03-15T18:08:24.171Z,21.57
2019-03-15T18:10:54.985Z,20.33
2019-03-15T18:13:25.495Z,18.37
2019-03-15T18:15:56.027Z,18.10
2019-03-15T18:18:27.994Z,17.83
2019-03-15T18:20:58.616Z,20.90
2019-03-15T18:23:29.298Z,17.20
2019-03-15T18:25:59.932Z,17.37
2019-03-15T18:28:30.521Z,17.20
2019-03-15T18:31:00.994Z,23.17
2019-03-15T18:33:31.678Z,19.27
2019-03-15T18:36:02.369Z,18.80
2019-03-15T18:38:32.960Z,19.33
2019-03-15T18:41:03.626Z,23.40
2019-03-15T18:43:34.351Z,37.13
2019-03-15T18:46:04.864Z,33.60
2019-03-15T18:48:35.397Z,42.10
2019-03-15T18:51:06.010Z,28.63
2019-03-15T18:53:36.584Z,31.87
2019-03-15T18:56:07.266Z,29.37
2019-03-15T18:58:37.895Z,32.30
2019-03-15T19:01:08.437Z,34.70
2019-03-15T19:03:39.157Z,28.30
2019-03-15T19:06:09.891Z,28.40
2019-03-15T19:08:40.868Z,24.27
2019-03-15T19:11:11.447Z,29.87
2019-03-15T19:13:42.020Z,28.17
2019-03-15T19:16:20.049Z,30.63
2019-03-15T19:18:45.089Z,33.63
2019-03-15T19:21:15.621Z,34.23
2019-03-15T19:23:47.423Z,37.87
2019-03-15T19:26:18.216Z,37.37
2019-03-15T19:28:48.783Z,36.80
2019-03-15T19:31:19.353Z,35.97
2019-03-15T19:33:49.893Z,36.93
2019-03-15T19:36:20.499Z,30.43
2019-03-15T19:38:51.087Z,32.43
2019-03-15T19:41:21.569Z,35.03
2019-03-15T19:43:52.131Z,43.63
2019-03-15T19:46:22.661Z,34.37
2019-03-15T19:48:53.164Z,29.67
2019-03-15T19:51:23.752Z,32.03
2019-03-15T19:53:54.551Z,29.23
2019-03-15T19:56:25.082Z,30.90
2019-03-15T19:58:56.099Z,27.63
2019-03-15T20:01:28.972Z,31.63
2019-03-15T20:03:58.930Z,28.77
2019-03-15T20:06:29.565Z,23.10
2019-03-15T20:09:01.324Z,24.30
2019-03-15T20:11:33.313Z,24.13
2019-03-15T20:14:04.263Z,20.93
2019-03-15T20:16:34.902Z,20.23
2019-03-15T20:19:05.522Z,13.47
2019-03-15T20:21:36.106Z,13.90
2019-03-15T20:24:06.848Z,11.77
2019-03-15T20:26:37.754Z,7.73
2019-03-15T20:29:08.547Z,8.70
2019-03-15T20:31:39.118Z,8.90
2019-03-15T20:34:09.609Z,5.63
2019-03-15T20:36:40.254Z,8.47
2019-03-15T20:39:10.810Z,7.87
2019-03-15T20:41:41.417Z,8.47
2019-03-15T20:44:12.111Z,12.67
2019-03-15T20:46:42.770Z,9.53
2019-03-15T20:49:13.350Z,8.73
2019-03-15T20:51:44.015Z,16.70
2019-03-15T20:54:14.640Z,11.90
2019-03-15T20:56:45.358Z,8.37
2019-03-15T20:59:15.914Z,10.57
2019-03-15T21:01:48.979Z,9.37
2019-03-15T21:04:18.815Z,6.53
2019-03-15T21:06:49.469Z,12.77
2019-03-15T21:09:20.034Z,11.47
2019-03-15T21:11:51.990Z,11.80
2019-03-15T21:14:22.610Z,16.30
2019-03-15T21:16:53.390Z,13.70
2019-03-15T21:19:23.991Z,11.80
2019-03-15T21:21:56.287Z,11.87
2019-03-15T21:24:26.637Z,10.33
2019-03-15T21:26:57.091Z,14.83
2019-03-15T21:29:27.606Z,12.63
2019-03-15T21:31:58.159Z,11.37
2019-03-15T21:34:28.801Z,12.60
2019-03-15T21:36:59.352Z,10.87
2019-03-15T21:39:29.878Z,11.93
2019-03-15T21:42:00.363Z,13.07
2019-03-15T21:44:30.926Z,17.27
2019-03-15T21:47:01.386Z,13.27
2019-03-15T21:49:35.102Z,10.77
2019-03-15T21:52:04.074Z,10.50
2019-03-15T21:54:34.632Z,9.13
2019-03-15T21:57:05.082Z,12.07
2019-03-15T21:59:38.901Z,12.93
2019-03-15T22:02:07.701Z,14.47
2019-03-15T22:04:38.245Z,11.83
2019-03-15T22:07:08.771Z,11.63
2019-03-15T22:09:39.450Z,8.00
2019-03-15T22:12:09.939Z,9.43
2019-03-15T22:14:40.564Z,9.07
2019-03-15T22:17:11.086Z,10.23
2019-03-15T22:19:41.538Z,11.43
2019-03-15T22:22:12.245Z,12.17
2019-03-15T22:24:42.718Z,11.37
2019-03-15T22:27:13.218Z,12.57
2019-03-15T22:29:53.538Z,9.70
2019-03-15T22:32:15.862Z,10.10
2019-03-15T22:34:46.365Z,11.23
2019-03-15T22:37:16.899Z,11.13
2019-03-15T22:39:47.345Z,8.70
2019-03-15T22:42:17.898Z,9.00
2019-03-15T22:44:48.377Z,6.67
2019-03-15T22:47:18.946Z,7.63
2019-03-15T22:49:49.456Z,7.83
2019-03-15T22:52:20.120Z,5.13
2019-03-15T22:54:50.727Z,6.10
2019-03-15T22:57:21.218Z,4.70
2019-03-15T22:59:51.676Z,6.37
2019-03-15T23:02:22.202Z,4.17
2019-03-15T23:04:52.809Z,2.83
2019-03-15T23:07:23.342Z,4.90
2019-03-15T23:09:53.917Z,3.20
2019-03-15T23:12:24.413Z,4.23
2019-03-15T23:14:54.934Z,8.90
2019-03-15T23:17:25.635Z,5.40
2019-03-15T23:19:56.200Z,6.37
2019-03-15T23:22:26.773Z,5.13
2019-03-15T23:24:57.340Z,5.40
2019-03-15T23:27:28.047Z,3.43
2019-03-15T23:29:58.706Z,2.83
2019-03-15T23:32:29.328Z,4.07
2019-03-15T23:34:59.872Z,5.27
2019-03-15T23:37:30.542Z,3.10
2019-03-15T23:40:03.588Z,4.53
2019-03-15T23:42:34.174Z,4.03
2019-03-15T23:45:04.875Z,4.73
2019-03-15T23:47:35.572Z,4.63
2019-03-15T23:50:06.430Z,12.83
2019-03-15T23:52:36.908Z,9.73
2019-03-15T23:55:07.838Z,14.67
2019-03-15T23:57:39.467Z,8.83
